Time;durP1;ratioP1;P1;durP2;ratioP2;P2;SDS_P1;SDS_P2;PMS_P1;PMS_P2;Temp;Humidity;BMP_temperature;BMP_pressure;BME280_temperature;BME280_humidity;BME280_pressure;Samples;Min_cycle;Max_cycle;Signal;HPM_P1;HPM_P2
2024/04/13 00:00:39;;;;;;;12.00;8.20;;;14.10;99.90;;;;;;5528351;25;20463;-61
2024/04/13 00:03:08;;;;;;;9.90;7.43;;;14.10;99.90;;;;;;5528047;25;20464;-61
2024/04/13 00:05:34;;;;;;;7.97;7.20;;;14.10;99.90;;;;;;5528323;25;20500;-60
2024/04/13 00:08:03;;;;;;;7.50;6.80;;;14.10;99.90;;;;;;5528123;25;20455;-61
2024/04/13 00:10:30;;;;;;;10.97;7.93;;;14.00;99.90;;;;;;5527907;25;20927;-60
2024/04/13 00:13:02;;;;;;;10.33;8.17;;;14.00;99.90;;;;;;5528251;25;20584;-60
2024/04/13 00:15:30;;;;;;;12.00;8.67;;;14.00;1.00;;;;;;5527722;25;20515;-61
2024/04/13 00:18:01;;;;;;;9.70;7.60;;;14.00;99.90;;;;;;5527903;25;20459;-59
2024/04/13 00:20:27;;;;;;;10.70;7.70;;;14.00;99.90;;;;;;5528157;25;20487;-60
2024/04/13 00:22:56;;;;;;;11.47;8.53;;;14.00;99.90;;;;;;5528097;25;20396;-60
2024/04/13 00:25:23;;;;;;;12.60;8.87;;;13.90;99.90;;;;;;5528083;25;20427;-60
2024/04/13 00:27:52;;;;;;;15.50;8.30;;;13.90;99.90;;;;;;5528098;25;20803;-60
2024/04/13 00:30:22;;;;;;;9.83;8.07;;;13.80;99.90;;;;;;5527370;25;20463;-61
2024/04/13 00:32:52;;;;;;;13.00;8.87;;;13.80;99.90;;;;;;5527987;25;20835;-60
2024/04/13 00:35:21;;;;;;;13.80;8.77;;;13.80;1.00;;;;;;5528113;25;20523;-60
2024/04/13 00:37:50;;;;;;;11.77;9.30;;;13.80;1.00;;;;;;5527417;25;20514;-61
2024/04/13 00:40:16;;;;;;;10.70;8.53;;;13.70;1.00;;;;;;5527717;25;20364;-60
2024/04/13 00:42:45;;;;;;;13.33;8.87;;;13.70;1.00;;;;;;5527877;25;20482;-60
2024/04/13 00:45:11;;;;;;;14.43;8.80;;;13.70;1.00;;;;;;5527908;25;20444;-60
2024/04/13 00:47:43;;;;;;;10.60;8.17;;;13.70;1.00;;;;;;5527736;25;20579;-60
2024/04/13 00:50:11;;;;;;;11.70;8.67;;;13.70;1.00;;;;;;5527692;25;20455;-61
2024/04/13 00:52:41;;;;;;;12.30;8.80;;;13.60;1.00;;;;;;5529371;25;20912;-60
2024/04/13 00:55:09;;;;;;;9.10;8.03;;;13.60;10.30;;;;;;5531455;25;20495;-60
2024/04/13 00:57:39;;;;;;;11.67;9.17;;;13.60;85.50;;;;;;5531493;25;20510;-60
2024/04/13 01:00:06;;;;;;;11.97;9.03;;;13.60;99.90;;;;;;5531023;25;20748;-60
2024/04/13 01:02:37;;;;;;;10.70;7.97;;;13.60;97.00;;;;;;5531515;25;20769;-60
2024/04/13 01:05:07;;;;;;;11.40;7.90;;;13.50;99.90;;;;;;5531373;25;20451;-60
2024/04/13 01:07:36;;;;;;;9.20;8.30;;;13.50;36.20;;;;;;5531345;25;20494;-60
2024/04/13 01:10:05;;;;;;;16.50;10.83;;;13.50;99.90;;;;;;5531139;25;20364;-60
2024/04/13 01:12:35;;;;;;;12.77;9.60;;;13.50;99.90;;;;;;5531128;25;20506;-60
2024/04/13 01:15:01;;;;;;;13.97;8.83;;;13.40;99.90;;;;;;5531168;25;20440;-60
2024/04/13 01:17:30;;;;;;;11.50;8.00;;;13.40;99.90;;;;;;5530848;25;20865;-60
2024/04/13 01:19:56;;;;;;;12.47;8.90;;;13.40;1.00;;;;;;5530814;25;20510;-60
2024/04/13 01:22:28;;;;;;;11.30;8.30;;;13.40;99.90;;;;;;5530889;25;20514;-60
2024/04/13 01:24:57;;;;;;;12.10;9.30;;;13.40;1.00;;;;;;5531221;25;20454;-60
2024/04/13 01:27:26;;;;;;;12.67;9.00;;;13.30;99.90;;;;;;5531160;25;20427;-60
2024/04/13 01:29:52;;;;;;;10.83;9.50;;;13.40;1.00;;;;;;5531137;25;20789;-60
2024/04/13 01:32:21;;;;;;;11.10;8.93;;;13.40;99.90;;;;;;5530744;25;20456;-60
2024/04/13 01:34:47;;;;;;;14.30;9.70;;;13.40;1.00;;;;;;5530839;25;20459;-60
2024/04/13 01:37:16;;;;;;;12.37;8.40;;;13.40;1.00;;;;;;5530965;25;20560;-60
2024/04/13 01:39:43;;;;;;;10.73;9.57;;;13.40;99.90;;;;;;5530827;25;20440;-60
2024/04/13 01:42:15;;;;;;;12.37;9.80;;;13.40;99.90;;;;;;5530553;25;20464;-60
2024/04/13 01:44:41;;;;;;;10.90;8.80;;;13.40;99.90;;;;;;5530907;25;20777;-60
2024/04/13 01:47:10;;;;;;;11.53;9.00;;;13.40;99.90;;;;;;5530717;25;20755;-60
2024/04/13 01:49:36;;;;;;;14.07;8.83;;;13.40;99.90;;;;;;5531008;25;20509;-60
2024/04/13 01:52:05;;;;;;;13.50;9.30;;;13.30;99.90;;;;;;5530448;25;20808;-60
2024/04/13 01:54:31;;;;;;;12.27;8.63;;;13.30;1.00;;;;;;5530488;25;20489;-60
2024/04/13 01:57:00;;;;;;;10.93;8.80;;;13.20;99.90;;;;;;5530488;25;21013;-58
2024/04/13 01:59:29;;;;;;;11.87;8.87;;;13.20;99.90;;;;;;5530688;25;20431;-60
2024/04/13 02:01:58;;;;;;;11.27;8.43;;;13.20;1.00;;;;;;5530146;25;20486;-60
2024/04/13 02:04:24;;;;;;;10.10;8.30;;;13.20;1.00;;;;;;5529334;25;20459;-60
2024/04/13 02:06:54;;;;;;;11.53;8.93;;;13.10;1.00;;;;;;5530265;25;20458;-60
2024/04/13 02:09:20;;;;;;;12.83;9.60;;;13.10;1.00;;;;;;5530527;25;20475;-60
2024/04/13 02:11:49;;;;;;;11.07;8.37;;;13.10;1.00;;;;;;5530374;25;20881;-61
2024/04/13 02:14:16;;;;;;;10.57;9.00;;;13.20;1.00;;;;;;5530189;25;20489;-61
2024/04/13 02:16:47;;;;;;;12.80;8.30;;;13.20;1.00;;;;;;5530301;25;20462;-61
2024/04/13 02:19:14;;;;;;;12.47;8.90;;;13.20;99.90;;;;;;5530338;25;20750;-61
2024/04/13 02:21:43;;;;;;;12.17;8.93;;;13.20;1.00;;;;;;5530573;25;20536;-60
2024/04/13 02:24:09;;;;;;;10.50;9.27;;;13.20;1.00;;;;;;5529981;25;20511;-61
2024/04/13 02:26:38;;;;;;;10.10;8.70;;;13.10;1.00;;;;;;5529953;25;20368;-61
2024/04/13 02:29:04;;;;;;;13.50;9.83;;;13.10;1.00;;;;;;5530209;25;20494;-61
2024/04/13 02:31:33;;;;;;;10.00;8.93;;;13.10;1.00;;;;;;5530055;25;20563;-61
2024/04/13 02:34:02;;;;;;;9.47;8.47;;;13.10;99.90;;;;;;5529789;25;20900;-61
2024/04/13 02:36:34;;;;;;;13.90;9.17;;;13.10;1.00;;;;;;5529484;25;20538;-61
2024/04/13 02:39:01;;;;;;;10.50;9.50;;;13.10;1.00;;;;;;5530084;25;20570;-61
2024/04/13 02:41:30;;;;;;;11.90;8.77;;;13.10;1.00;;;;;;5530084;25;20392;-61
2024/04/13 02:43:56;;;;;;;15.97;10.17;;;13.10;99.90;;;;;;5529592;25;20530;-61
2024/04/13 02:46:25;;;;;;;10.80;8.40;;;13.10;1.00;;;;;;5529835;25;20459;-60
2024/04/13 02:48:51;;;;;;;12.07;9.57;;;13.10;1.00;;;;;;5529782;25;20462;-61
2024/04/13 02:51:23;;;;;;;11.23;9.93;;;13.10;99.90;;;;;;5529849;25;20455;-61
2024/04/13 02:53:49;;;;;;;9.93;8.93;;;13.20;1.00;;;;;;5529939;25;20540;-61
2024/04/13 02:56:18;;;;;;;10.87;9.77;;;13.20;80.90;;;;;;5529500;25;20507;-61
2024/04/13 02:58:47;;;;;;;12.20;8.73;;;13.20;32.10;;;;;;5529596;25;20462;-61
2024/04/13 03:01:16;;;;;;;12.50;8.80;;;13.20;1.00;;;;;;5529713;25;20560;-61
2024/04/13 03:03:42;;;;;;;12.03;8.60;;;13.30;1.00;;;;;;5529680;25;20489;-61
2024/04/13 03:06:13;;;;;;;11.90;9.47;;;13.20;1.00;;;;;;5529269;25;20455;-60
2024/04/13 03:08:42;;;;;;;12.33;10.07;;;13.20;1.00;;;;;;5529451;25;20466;-61
2024/04/13 03:11:12;;;;;;;10.83;8.90;;;13.20;1.00;;;;;;5529841;25;20448;-61
2024/04/13 03:13:38;;;;;;;11.13;8.73;;;13.20;1.00;;;;;;5529523;25;20443;-61
2024/04/13 03:16:09;;;;;;;11.73;9.43;;;13.10;1.00;;;;;;5529455;25;20479;-61
2024/04/13 03:18:38;;;;;;;18.30;10.33;;;13.10;1.00;;;;;;5529248;25;20506;-60
2024/04/13 03:21:08;;;;;;;12.47;9.83;;;13.10;1.00;;;;;;5529410;25;20503;-61
2024/04/13 03:23:35;;;;;;;14.10;9.20;;;13.00;1.00;;;;;;5529306;25;20451;-61
2024/04/13 03:26:08;;;;;;;12.47;9.03;;;13.00;64.10;;;;;;5528964;25;20458;-60
2024/04/13 03:28:35;;;;;;;13.60;9.20;;;13.10;99.90;;;;;;5529105;25;20487;-61
2024/04/13 03:31:04;;;;;;;13.93;9.07;;;13.10;99.90;;;;;;5527890;25;20455;-61
2024/04/13 03:33:30;;;;;;;10.17;9.13;;;13.10;99.90;;;;;;5529084;25;20911;-61
2024/04/13 03:36:03;;;;;;;12.00;9.20;;;13.20;36.20;;;;;;5526976;25;20447;-60
2024/04/13 03:38:32;;;;;;;11.63;10.37;;;13.10;1.00;;;;;;5528933;25;20455;-61
2024/04/13 03:41:05;;;;;;;10.97;9.33;;;13.20;99.90;;;;;;5529037;25;20425;-61
2024/04/13 03:43:37;;;;;;;14.40;10.37;;;13.20;99.90;;;;;;5529014;25;20454;-61
2024/04/13 03:46:04;;;;;;;11.30;8.63;;;13.20;99.90;;;;;;5528588;25;20491;-61
2024/04/13 03:48:33;;;;;;;11.87;9.43;;;13.10;1.00;;;;;;5528316;25;20630;-61
2024/04/13 03:51:01;;;;;;;13.30;9.20;;;13.20;1.00;;;;;;5526119;25;20744;-61
2024/04/13 03:53:30;;;;;;;11.33;8.77;;;13.20;99.90;;;;;;5525855;25;20546;-61
2024/04/13 03:55:56;;;;;;;11.07;8.70;;;13.20;99.90;;;;;;5525461;25;20435;-61
2024/04/13 03:58:25;;;;;;;13.20;9.80;;;13.20;1.00;;;;;;5525738;25;20462;-60
2024/04/13 04:00:53;;;;;;;9.63;8.70;;;13.10;1.00;;;;;;5525746;25;20463;-60
2024/04/13 04:03:23;;;;;;;14.10;8.53;;;13.00;99.90;;;;;;5525347;25;20515;-61
2024/04/13 04:05:49;;;;;;;10.07;8.83;;;13.00;1.00;;;;;;5528403;25;20444;-61
2024/04/13 04:08:18;;;;;;;15.47;8.90;;;12.90;99.90;;;;;;5528258;25;20502;-61
2024/04/13 04:10:44;;;;;;;10.33;8.73;;;12.80;99.90;;;;;;5528110;25;20447;-61
2024/04/13 04:13:13;;;;;;;14.50;9.77;;;12.70;1.00;;;;;;5528513;25;20434;-61
2024/04/13 04:15:41;;;;;;;10.03;8.30;;;12.70;1.00;;;;;;5528492;25;20451;-61
2024/04/13 04:18:12;;;;;;;12.47;8.70;;;12.70;99.70;;;;;;5528155;25;20506;-61
2024/04/13 04:20:39;;;;;;;11.10;9.50;;;12.70;99.90;;;;;;5528227;25;20455;-61
2024/04/13 04:23:08;;;;;;;12.83;9.83;;;12.70;99.90;;;;;;5528198;25;20873;-61
2024/04/13 04:25:34;;;;;;;11.77;9.87;;;12.60;99.90;;;;;;5528180;25;20563;-60
2024/04/13 04:28:03;;;;;;;11.50;10.10;;;12.60;82.50;;;;;;5530145;25;20819;-61
2024/04/13 04:30:29;;;;;;;14.73;10.57;;;12.70;1.00;;;;;;5531649;25;20450;-61
2024/04/13 04:32:58;;;;;;;13.07;9.57;;;12.60;99.90;;;;;;5531675;25;20549;-61
2024/04/13 04:35:27;;;;;;;12.30;9.70;;;12.60;99.90;;;;;;5531818;25;20463;-61
2024/04/13 04:37:56;;;;;;;11.30;8.60;;;12.60;1.00;;;;;;5531770;25;20462;-61
2024/04/13 04:40:23;;;;;;;11.33;9.47;;;12.60;1.00;;;;;;5531199;25;20458;-61
2024/04/13 04:42:52;;;;;;;12.93;10.10;;;12.60;99.90;;;;;;5531290;25;20505;-61
2024/04/13 04:45:18;;;;;;;11.73;9.43;;;12.60;99.90;;;;;;5531374;25;20447;-61
2024/04/13 04:47:49;;;;;;;13.93;9.60;;;12.60;99.90;;;;;;5531257;25;20897;-61
2024/04/13 04:50:15;;;;;;;11.23;9.90;;;12.60;99.90;;;;;;5531092;25;20458;-61
2024/04/13 04:52:47;;;;;;;13.10;10.47;;;12.70;1.00;;;;;;5531157;25;20507;-61
2024/04/13 04:55:13;;;;;;;13.40;9.87;;;12.70;1.00;;;;;;5531350;25;20559;-61
2024/04/13 04:57:42;;;;;;;15.80;10.43;;;12.60;1.00;;;;;;5531077;25;20395;-61
2024/04/13 05:00:13;;;;;;;11.30;10.00;;;12.60;1.00;;;;;;5531469;25;20568;-61
2024/04/13 05:02:43;;;;;;;10.50;9.40;;;12.60;1.00;;;;;;5531278;25;20497;-61
2024/04/13 05:05:09;;;;;;;15.90;9.60;;;12.60;1.00;;;;;;5531407;25;20462;-61
2024/04/13 05:07:38;;;;;;;13.43;9.23;;;12.60;99.90;;;;;;5531269;25;20447;-61
2024/04/13 05:10:08;;;;;;;10.20;9.20;;;12.50;99.90;;;;;;5531143;25;20450;-61
2024/04/13 05:12:37;;;;;;;12.73;9.07;;;12.60;1.00;;;;;;5531087;25;20511;-61
2024/04/13 05:15:04;;;;;;;9.73;8.73;;;12.60;1.00;;;;;;5531216;25;20478;-61
2024/04/13 05:17:33;;;;;;;10.10;9.10;;;12.70;1.00;;;;;;5531269;25;20440;-61
2024/04/13 05:19:59;;;;;;;12.70;8.83;;;12.70;99.90;;;;;;5530919;25;20392;-61
2024/04/13 05:22:28;;;;;;;12.20;9.20;;;12.70;1.00;;;;;;5530940;25;20518;-62
2024/04/13 05:24:55;;;;;;;11.13;10.00;;;12.80;99.90;;;;;;5531102;25;20554;-61
2024/04/13 05:27:26;;;;;;;10.70;9.57;;;12.90;99.90;;;;;;5530442;25;20462;-61
2024/04/13 05:29:53;;;;;;;10.70;9.60;;;12.90;1.00;;;;;;5530483;25;20501;-61
2024/04/13 05:32:22;;;;;;;17.63;10.63;;;13.00;1.00;;;;;;5530908;25;20509;-61
2024/04/13 05:34:49;;;;;;;13.70;11.30;;;13.10;32.60;;;;;;5529633;25;20440;-61
2024/04/13 05:37:17;;;;;;;11.87;10.63;;;13.20;99.90;;;;;;5529583;25;20404;-61
2024/04/13 05:39:44;;;;;;;13.90;11.67;;;13.20;1.00;;;;;;5529513;25;20489;-62
2024/04/13 05:42:12;;;;;;;11.83;9.20;;;13.30;1.70;;;;;;5530599;25;20454;-62
2024/04/13 05:44:41;;;;;;;13.23;9.10;;;13.30;99.90;;;;;;5530659;25;20564;-62
2024/04/13 05:47:10;;;;;;;15.00;9.00;;;13.30;99.90;;;;;;5530791;25;20447;-62
2024/04/13 05:49:37;;;;;;;10.50;7.80;;;13.30;1.00;;;;;;5530783;25;20447;-62
2024/04/13 05:52:06;;;;;;;10.20;9.10;;;13.30;1.00;;;;;;5530723;25;20459;-62
2024/04/13 05:54:33;;;;;;;11.47;9.20;;;13.30;1.00;;;;;;5530453;25;20459;-62
2024/04/13 05:57:01;;;;;;;9.97;8.97;;;13.40;1.00;;;;;;5530600;25;20812;-61
2024/04/13 05:59:28;;;;;;;11.03;8.77;;;13.40;99.90;;;;;;5530674;25;20896;-61
2024/04/13 06:01:59;;;;;;;11.33;8.57;;;13.40;1.00;;;;;;5530244;25;20407;-61
2024/04/13 06:04:25;;;;;;;12.47;8.53;;;13.40;1.00;;;;;;5530314;25;20749;-62
2024/04/13 06:06:54;;;;;;;10.33;9.23;;;13.50;56.20;;;;;;5530255;25;20459;-62
2024/04/13 06:09:21;;;;;;;9.90;9.00;;;13.50;1.00;;;;;;5530717;25;20426;-62
2024/04/13 06:11:49;;;;;;;14.33;9.50;;;13.70;99.90;;;;;;5530444;25;20751;-62
2024/04/13 06:14:18;;;;;;;10.97;8.67;;;13.70;1.00;;;;;;5530246;25;20451;-62
2024/04/13 06:16:45;;;;;;;11.20;9.43;;;13.80;99.90;;;;;;5530195;25;20507;-62
2024/04/13 06:19:16;;;;;;;9.90;8.80;;;13.80;99.90;;;;;;5530305;25;20460;-61
2024/04/13 06:21:43;;;;;;;9.60;8.37;;;13.90;1.00;;;;;;5530375;25;21016;-62
2024/04/13 06:24:12;;;;;;;9.50;7.93;;;14.00;1.00;;;;;;5530010;25;20526;-62
2024/04/13 06:26:38;;;;;;;10.00;8.60;;;14.20;99.90;;;;;;5529351;25;20519;-62
2024/04/13 06:29:07;;;;;;;12.17;8.50;;;14.20;99.90;;;;;;5527840;25;20462;-62
2024/04/13 06:31:33;;;;;;;8.57;7.30;;;14.40;78.30;;;;;;5528062;25;20463;-62
2024/04/13 06:34:02;;;;;;;9.53;8.30;;;14.50;99.90;;;;;;5529348;25;20474;-62
2024/04/13 06:36:31;;;;;;;10.53;8.60;;;14.70;1.00;;;;;;5529298;25;20523;-62
2024/04/13 06:39:00;;;;;;;8.67;6.57;;;14.80;99.90;;;;;;5506609;25;20472;-62
2024/04/13 06:41:26;;;;;;;10.37;7.60;;;15.00;1.00;;;;;;5492664;26;20925;-62
2024/04/13 06:43:55;;;;;;;9.60;7.43;;;15.20;1.00;;;;;;5492760;26;20690;-62
2024/04/13 06:46:21;;;;;;;8.50;6.33;;;15.40;1.00;;;;;;5492262;26;20768;-61
2024/04/13 06:48:50;;;;;;;8.93;8.07;;;15.60;1.00;;;;;;5492454;26;20504;-61
2024/04/13 06:51:16;;;;;;;15.53;8.07;;;15.80;1.00;;;;;;5492511;26;20504;-61
2024/04/13 06:53:48;;;;;;;11.43;7.27;;;15.90;44.80;;;;;;5493011;26;20566;-62
2024/04/13 06:56:14;;;;;;;9.13;7.80;;;15.70;99.90;;;;;;5495024;26;20500;-61
2024/04/13 06:58:43;;;;;;;9.80;7.20;;;16.10;99.90;;;;;;5492456;26;20909;-61
2024/04/13 07:01:10;;;;;;;11.43;7.20;;;16.30;4.90;;;;;;5490750;26;20464;-62
2024/04/13 07:03:39;;;;;;;10.57;6.77;;;16.50;1.00;;;;;;5490347;26;20472;-62
2024/04/13 07:06:05;;;;;;;9.87;6.70;;;16.60;26.40;;;;;;5502927;26;20463;-61
2024/04/13 07:08:34;;;;;;;8.50;6.80;;;16.80;1.00;;;;;;5529282;25;20463;-62
2024/04/13 07:11:03;;;;;;;8.37;6.50;;;16.80;1.00;;;;;;5529267;25;20451;-62
2024/04/13 07:13:33;;;;;;;9.60;6.43;;;17.00;1.00;;;;;;5529398;25;20502;-62
2024/04/13 07:16:00;;;;;;;10.40;7.00;;;17.20;99.90;;;;;;5529236;25;20451;-62
2024/04/13 07:18:29;;;;;;;9.97;6.67;;;17.30;1.00;;;;;;5527481;25;20462;-62
2024/04/13 07:20:55;;;;;;;8.00;7.20;;;17.50;99.90;;;;;;5529557;25;20756;-62
2024/04/13 07:23:24;;;;;;;7.17;6.20;;;17.70;7.10;;;;;;5529723;25;20482;-62
2024/04/13 07:25:57;;;;;;;7.30;5.93;;;17.80;1.00;;;;;;5529459;25;20458;-62
2024/04/13 07:28:29;;;;;;;7.83;6.50;;;18.00;99.90;;;;;;5529232;25;20440;-62
2024/04/13 07:30:56;;;;;;;9.83;6.00;;;18.10;27.10;;;;;;5529216;25;20584;-62
2024/04/13 07:33:25;;;;;;;8.53;6.37;;;18.10;1.00;;;;;;5529305;25;20454;-62
2024/04/13 07:35:51;;;;;;;9.03;6.27;;;18.20;99.90;;;;;;5528592;25;20492;-62
2024/04/13 07:38:20;;;;;;;6.87;5.80;;;18.20;99.90;;;;;;5528937;25;20967;-62
2024/04/13 07:40:47;;;;;;;7.40;6.07;;;18.40;99.90;;;;;;5529178;25;20447;-62
2024/04/13 07:43:16;;;;;;;9.10;5.90;;;18.60;45.50;;;;;;5529132;25;20544;-61
2024/04/13 07:45:49;;;;;;;8.00;6.00;;;18.60;1.00;;;;;;5529133;25;20458;-61
2024/04/13 07:48:20;;;;;;;6.80;6.10;;;18.70;1.00;;;;;;5528755;25;20736;-62
2024/04/13 07:50:47;;;;;;;6.30;5.53;;;18.70;12.50;;;;;;5528911;25;20732;-62
2024/04/13 07:53:16;;;;;;;7.50;5.00;;;19.00;74.90;;;;;;5528876;25;20812;-62
2024/04/13 07:55:42;;;;;;;8.10;5.70;;;19.10;1.00;;;;;;5528890;25;20443;-62
2024/04/13 07:58:11;;;;;;;10.40;5.83;;;19.10;1.00;;;;;;5528460;25;20522;-61
2024/04/13 08:00:39;;;;;;;8.30;6.40;;;19.10;99.90;;;;;;5528619;25;20454;-62
2024/04/13 08:03:11;;;;;;;6.47;5.80;;;19.10;1.00;;;;;;5525610;25;20451;-62
2024/04/13 08:05:37;;;;;;;8.77;5.20;;;19.20;1.00;;;;;;5527519;25;20524;-62
2024/04/13 08:08:07;;;;;;;5.90;4.93;;;19.40;1.00;;;;;;5527237;25;20463;-61
2024/04/13 08:10:37;;;;;;;5.90;5.30;;;19.50;46.20;;;;;;5526410;25;20489;-61
2024/04/13 08:13:06;;;;;;;7.80;5.47;;;19.70;1.00;;;;;;5528525;25;20560;-62
2024/04/13 08:15:33;;;;;;;9.10;6.27;;;19.90;1.00;;;;;;5528529;25;20491;-62
2024/04/13 08:18:02;;;;;;;8.90;5.83;;;20.10;1.00;;;;;;5528214;25;20451;-62
2024/04/13 08:20:31;;;;;;;15.23;6.07;;;20.20;1.00;;;;;;5524893;25;20478;-62
2024/04/13 08:23:00;;;;;;;8.53;6.00;;;20.30;1.00;;;;;;5528079;25;20776;-62
2024/04/13 08:25:26;;;;;;;7.37;5.40;;;20.40;1.00;;;;;;5528453;25;20972;-62
2024/04/13 08:27:55;;;;;;;7.10;5.00;;;20.60;1.00;;;;;;5526915;25;20479;-62
2024/04/13 08:30:23;;;;;;;7.37;5.20;;;20.60;1.00;;;;;;5524894;25;20875;-61
2024/04/13 08:32:52;;;;;;;5.93;4.73;;;20.60;1.00;;;;;;5524359;25;20572;-61
2024/04/13 08:35:18;;;;;;;6.97;5.43;;;20.90;1.00;;;;;;5525070;25;20481;-61
2024/04/13 08:37:51;;;;;;;11.10;5.40;;;21.20;1.00;;;;;;5524496;25;20514;-61
2024/04/13 08:40:17;;;;;;;5.53;4.90;;;21.30;99.90;;;;;;5525058;25;20979;-61
2024/04/13 08:42:46;;;;;;;8.47;5.57;;;21.30;1.00;;;;;;5524899;25;20502;-62
2024/04/13 08:45:13;;;;;;;7.63;5.20;;;21.10;99.90;;;;;;5527603;25;20997;-61
2024/04/13 08:47:45;;;;;;;7.20;5.63;;;21.20;99.90;;;;;;5527501;25;20519;-61
2024/04/13 08:50:12;;;;;;;5.60;4.90;;;21.20;99.90;;;;;;5527749;25;20451;-62
2024/04/13 08:52:42;;;;;;;7.93;5.40;;;21.40;1.00;;;;;;5527187;25;20510;-61
2024/04/13 08:55:11;;;;;;;7.40;5.33;;;21.40;99.90;;;;;;5527036;25;20956;-61
2024/04/13 08:57:42;;;;;;;4.70;4.20;;;21.40;99.90;;;;;;5527187;25;20455;-62
2024/04/13 09:00:14;;;;;;;5.33;4.83;;;21.30;99.90;;;;;;5527142;25;20506;-62
2024/04/13 09:02:47;;;;;;;8.10;5.37;;;21.40;99.90;;;;;;5526294;25;20501;-61
2024/04/13 09:05:15;;;;;;;7.10;5.20;;;21.40;99.90;;;;;;5525582;26;20462;-62
2024/04/13 09:07:47;;;;;;;12.80;5.30;;;21.50;99.90;;;;;;5525488;25;20471;-62
2024/04/13 09:10:18;;;;;;;9.03;5.60;;;21.70;99.90;;;;;;5527311;25;20495;-62
2024/04/13 09:12:48;;;;;;;7.97;4.50;;;21.80;99.90;;;;;;5526816;25;20408;-61
2024/04/13 09:15:14;;;;;;;8.40;4.97;;;22.00;99.90;;;;;;5529342;25;20525;-61
2024/04/13 09:17:43;;;;;;;4.50;4.10;;;22.40;99.90;;;;;;5526624;25;20542;-61
2024/04/13 09:20:10;;;;;;;6.67;4.43;;;22.50;99.90;;;;;;5526944;25;20470;-62
2024/04/13 09:22:42;;;;;;;7.40;4.70;;;22.70;99.90;;;;;;5527677;25;20454;-62
2024/04/13 09:25:22;;;;;;;5.50;4.20;;;22.90;99.90;;;;;;5528237;25;20454;-62
2024/04/13 09:28:01;;;;;;;6.53;4.50;;;22.90;99.90;;;;;;5527979;25;20771;-62
2024/04/13 09:30:28;;;;;;;5.73;4.43;;;23.10;99.90;;;;;;5524454;25;20471;-62
2024/04/13 09:33:03;;;;;;;12.10;4.73;;;23.30;99.90;;;;;;5494167;26;20565;-62
2024/04/13 09:35:30;;;;;;;5.27;4.10;;;23.40;99.90;;;;;;5493957;26;20822;-62
2024/04/13 09:38:01;;;;;;;9.13;5.03;;;23.60;99.90;;;;;;5493517;26;20593;-62
2024/04/13 09:40:30;;;;;;;6.03;4.70;;;23.60;99.90;;;;;;5494027;26;20464;-62
2024/04/13 09:43:00;;;;;;;6.90;5.20;;;23.40;99.90;;;;;;5493988;26;20507;-62
2024/04/13 09:45:27;;;;;;;6.17;4.70;;;23.20;99.90;;;;;;5494004;26;20562;-62
2024/04/13 09:47:56;;;;;;;5.80;4.47;;;23.30;99.90;;;;;;5493795;26;20760;-61
2024/04/13 09:50:26;;;;;;;7.70;5.17;;;23.30;99.90;;;;;;5493686;26;20565;-61
2024/04/13 09:52:57;;;;;;;5.23;4.50;;;23.30;99.90;;;;;;5495752;26;20471;-61
2024/04/13 09:55:24;;;;;;;7.70;4.00;;;23.20;99.90;;;;;;5495904;26;20472;-62
2024/04/13 09:57:56;;;;;;;10.43;6.13;;;23.20;99.90;;;;;;5514573;26;20560;-62
2024/04/13 10:00:24;;;;;;;5.43;4.00;;;23.20;99.90;;;;;;5530535;25;20451;-61
2024/04/13 10:02:53;;;;;;;5.00;4.30;;;23.40;99.90;;;;;;5530647;25;20462;-61
2024/04/13 10:05:20;;;;;;;7.60;4.57;;;23.30;99.90;;;;;;5530595;25;20463;-62
2024/04/13 10:07:50;;;;;;;6.93;4.47;;;23.20;99.90;;;;;;5522593;25;20471;-62
2024/04/13 10:10:18;;;;;;;5.40;4.20;;;23.30;99.90;;;;;;5526008;25;20593;-61
2024/04/13 10:12:48;;;;;;;6.10;4.67;;;23.50;99.90;;;;;;5493425;26;20479;-62
2024/04/13 10:15:17;;;;;;;6.60;4.87;;;23.70;99.90;;;;;;5493636;26;20494;-61
2024/04/13 10:17:46;;;;;;;6.43;5.03;;;23.70;99.90;;;;;;5493486;26;20453;-61
2024/04/13 10:20:14;;;;;;;5.10;4.57;;;23.60;99.90;;;;;;5493340;26;20490;-61
2024/04/13 10:22:43;;;;;;;10.67;5.40;;;23.50;99.90;;;;;;5493460;26;20464;-61
2024/04/13 10:25:13;;;;;;;7.03;4.97;;;23.60;99.90;;;;;;5492577;26;20456;-61
2024/04/13 10:27:44;;;;;;;5.77;4.60;;;23.60;99.90;;;;;;5523270;26;20580;-62
2024/04/13 10:30:11;;;;;;;7.10;4.80;;;23.90;99.90;;;;;;5529945;25;20896;-62
2024/04/13 10:32:50;;;;;;;5.10;4.33;;;24.00;99.90;;;;;;5529946;25;20579;-63
2024/04/13 10:35:26;;;;;;;5.97;5.00;;;24.30;99.90;;;;;;5527538;25;20451;-61
2024/04/13 10:37:52;;;;;;;6.83;4.40;;;24.50;99.90;;;;;;5524818;25;20530;-62
2024/04/13 10:40:26;;;;;;;4.53;3.90;;;24.40;99.90;;;;;;5526749;25;20451;-61
2024/04/13 10:43:03;;;;;;;7.03;5.00;;;24.50;99.90;;;;;;5525758;25;20535;-61
2024/04/13 10:45:33;;;;;;;7.77;5.40;;;24.60;99.90;;;;;;5525906;25;20806;-61
2024/04/13 10:48:06;;;;;;;5.20;4.70;;;24.30;99.90;;;;;;5525195;25;20447;-60
2024/04/13 10:50:35;;;;;;;7.70;5.00;;;24.40;99.90;;;;;;5523768;25;20463;-61
2024/04/13 10:53:02;;;;;;;7.27;6.00;;;24.50;99.90;;;;;;5525208;25;20454;-61
2024/04/13 10:55:31;;;;;;;7.50;5.97;;;24.80;99.90;;;;;;5527698;25;20459;-62
2024/04/13 10:57:58;;;;;;;5.87;4.97;;;25.10;99.90;;;;;;5528971;25;21016;-62
2024/04/13 11:00:28;;;;;;;8.10;4.50;;;25.40;99.90;;;;;;5526902;26;20459;-61
2024/04/13 11:02:55;;;;;;;5.83;5.23;;;25.10;99.90;;;;;;5526137;25;20463;-62
2024/04/13 11:05:27;;;;;;;5.43;4.90;;;24.90;99.90;;;;;;5525990;25;20526;-61
2024/04/13 11:07:53;;;;;;;7.60;5.50;;;25.00;99.90;;;;;;5524122;25;20496;-62
2024/04/13 11:10:23;;;;;;;7.17;5.17;;;25.30;99.90;;;;;;5525970;25;20462;-63
2024/04/13 11:12:50;;;;;;;5.67;4.70;;;25.60;99.90;;;;;;5520241;25;20517;-61
2024/04/13 11:15:19;;;;;;;6.40;5.60;;;25.70;99.90;;;;;;5508663;26;20484;-60
2024/04/13 11:17:45;;;;;;;7.10;5.33;;;25.40;99.90;;;;;;5526057;25;20462;-62
2024/04/13 11:20:14;;;;;;;9.53;5.57;;;25.20;99.90;;;;;;5524463;25;20753;-61
2024/04/13 11:22:46;;;;;;;6.53;5.93;;;25.10;99.90;;;;;;5524227;25;20471;-62
2024/04/13 11:25:16;;;;;;;8.53;5.63;;;24.70;99.90;;;;;;5524815;25;20865;-61
2024/04/13 11:27:46;;;;;;;6.67;5.00;;;24.80;99.90;;;;;;5526245;25;20455;-61
2024/04/13 11:30:16;;;;;;;6.07;4.83;;;25.10;99.90;;;;;;5524955;25;20936;-61
2024/04/13 11:32:42;;;;;;;11.40;6.60;;;25.60;99.90;;;;;;5522805;25;20467;-62
2024/04/13 11:35:15;;;;;;;6.20;5.60;;;25.80;99.90;;;;;;5524302;25;20555;-61
2024/04/13 11:37:54;;;;;;;9.40;6.23;;;25.90;99.90;;;;;;5526375;25;20588;-62
2024/04/13 11:40:23;;;;;;;5.37;4.87;;;25.90;99.90;;;;;;5557340;25;20461;-61
2024/04/13 11:42:49;;;;;;;5.67;5.10;;;25.70;99.90;;;;;;5563282;25;20749;-62
2024/04/13 11:45:19;;;;;;;8.73;4.30;;;25.90;99.90;;;;;;5564507;25;20465;-58
2024/04/13 11:47:45;;;;;;;5.77;5.27;;;26.00;99.90;;;;;;5563302;25;20462;-61
2024/04/13 11:50:15;;;;;;;4.63;4.07;;;25.70;99.90;;;;;;5563629;25;21047;-61
2024/04/13 11:52:45;;;;;;;6.63;5.00;;;25.70;99.90;;;;;;5563617;25;20509;-61
2024/04/13 11:55:15;;;;;;;5.30;4.73;;;25.80;99.90;;;;;;5563356;25;20558;-61
2024/04/13 11:57:45;;;;;;;6.30;4.33;;;26.10;99.90;;;;;;5541260;25;20583;-61
2024/04/13 12:00:15;;;;;;;6.70;4.43;;;26.30;99.90;;;;;;5525791;25;20518;-61
2024/04/13 12:02:43;;;;;;;5.43;4.93;;;26.00;99.90;;;;;;5527188;25;20940;-62
2024/04/13 12:05:12;;;;;;;5.73;4.30;;;26.20;99.90;;;;;;5528340;25;20471;-62
2024/04/13 12:07:39;;;;;;;6.53;4.37;;;26.60;99.90;;;;;;5526962;25;20462;-61
2024/04/13 12:10:11;;;;;;;5.80;4.00;;;26.30;99.90;;;;;;5526782;25;20937;-61
2024/04/13 12:12:37;;;;;;;4.00;3.70;;;26.40;99.90;;;;;;5527022;25;20587;-61
2024/04/13 12:15:07;;;;;;;3.33;3.03;;;26.60;99.90;;;;;;5528217;25;20459;-61
2024/04/13 12:17:34;;;;;;;4.17;3.57;;;26.80;99.90;;;;;;5525645;25;20799;-61
2024/04/13 12:20:03;;;;;;;6.80;3.87;;;27.00;99.90;;;;;;5528121;25;20507;-61
2024/04/13 12:22:30;;;;;;;4.50;3.43;;;27.10;99.90;;;;;;5528038;25;20511;-62
2024/04/13 12:24:59;;;;;;;4.40;3.77;;;27.30;99.90;;;;;;5528193;25;20557;-61
2024/04/13 12:27:28;;;;;;;4.37;3.20;;;27.40;99.90;;;;;;5528212;25;20463;-61
2024/04/13 12:29:57;;;;;;;4.27;3.40;;;27.50;99.90;;;;;;5527712;25;20517;-61
2024/04/13 12:32:24;;;;;;;5.70;3.87;;;27.50;99.90;;;;;;5527810;25;20525;-61
2024/04/13 12:34:53;;;;;;;4.63;4.20;;;27.30;99.90;;;;;;5528306;25;20499;-61
2024/04/13 12:37:19;;;;;;;5.80;4.00;;;27.40;99.90;;;;;;5527654;25;20530;-61
2024/04/13 12:39:48;;;;;;;4.77;4.00;;;26.80;99.90;;;;;;5528129;25;20443;-61
2024/04/13 12:42:15;;;;;;;6.23;5.63;;;26.90;99.90;;;;;;5527668;25;20907;-61
2024/04/13 12:44:47;;;;;;;5.60;4.80;;;26.80;99.90;;;;;;5527701;25;20511;-61
2024/04/13 12:47:14;;;;;;;5.07;4.50;;;26.80;99.90;;;;;;5527863;25;20467;-61
2024/04/13 12:49:43;;;;;;;6.03;4.20;;;26.80;99.90;;;;;;5531218;25;20562;-61
2024/04/13 12:52:10;;;;;;;5.10;4.17;;;26.90;99.90;;;;;;5530929;25;20576;-60